Dirección General De Aeronáutica Civil

Dirección Meteorológica de Chile - Servicios Climáticos

Informe General de Control de Calidad de la Estación

Listado de niveles de control de calidad para algunos parámetros
Estación Mejillones (230022)
Fecha de Revisión de los datos :

Elementos

Registros Niveles de Control Total
Nivel 0 Nivel 1 Nivel 2 Nivel 3 Errores Porcentaje
01 Temperatura del Aire Seco 42.577 0 . 0 . 0 . 0 . 0 0.00 %
02 Temperatura de Rocío 42.606 0 . 0 . 0 . 0 . 0 0.00 %
03 Humedad Relativa del Aire 42.605 0 . 0 . 0 . 0 . 0 0.00 %
04 Temperatura Máxima PM 1.782 0 . 0 . 23 1.29 % 0 . 23 1.29 %
05 Temperatura Mínima AM 1.775 0 . 0 . 39 2.20 % 0 . 39 2.20 %
06 Viento a 10 m. de Altura 42.606 0 . 0 . 0 . 0 . 0 0.00 %
07 Agua Caida, Acumulada 6 Horas 7.109 0 . 0 . 0 . 0 . 0 0.00 %
08 Presión Atm. a Nivel de Estación (QFE) 42.605 0 . 0 . 0 . 0 . 0 0.00 %
09 Presión Atm. a Nivel Medio del Mar (QFF) 42.605 0 . 0 . 0 . 0 . 0 0.00 %
10 Presión Atm. Estándar OACI (QNH) 42.605 0 . 0 . 0 . 0 . 0 0.00 %

Totales

308.875 . 0.0000 % . 0.0000 % . 0.0201 % . 0.0000 % 62 0.0201 %

Detalle de Errores Encontrados

Nivel Fecha del Dato Descripción Información Error Fecha Ingreso
2 2022-12-09 12:00:00 Temperatura 18.3 del 09-12-2022 05:00, Menor que la Mínima 19.6 09-12-2022 12:00 18.3 -- 19.6 2022-12-09 12:08:00
2 2023-07-13 12:00:00 Temperatura 11.2 del 13-07-2023 08:00, Menor que la Mínima 14.3 13-07-2023 12:00 11.2 -- 14.3 2023-07-13 12:08:00
2 2023-07-19 12:00:00 Temperatura 14.6 del 19-07-2023 02:00, Menor que la Mínima 16.5 19-07-2023 12:00 14.6 -- 16.5 2023-07-19 12:08:00
2 2023-07-20 12:00:00 Temperatura 15.0 del 20-07-2023 03:00, Menor que la Mínima 16.7 20-07-2023 12:00 15.0 -- 16.7 2023-07-20 12:08:00
2 2023-07-30 12:00:00 Temperatura 14.6 del 30-07-2023 03:00, Menor que la Mínima 16.2 30-07-2023 12:00 14.6 -- 16.2 2023-07-30 12:08:00
2 2023-08-01 12:00:00 Temperatura 15.7 del 01-08-2023 01:00, Menor que la Mínima 16.2 01-08-2023 12:00 15.7 -- 16.2 2023-08-01 12:08:00
2 2023-08-02 12:00:00 Temperatura 17.6 del 02-08-2023 06:00, Menor que la Mínima 17.7 02-08-2023 12:00 17.6 -- 17.7 2023-08-02 12:08:00
2 2023-08-07 12:00:00 Temperatura 11.4 del 07-08-2023 08:00, Menor que la Mínima 14.1 07-08-2023 12:00 11.4 -- 14.1 2023-08-07 12:08:00
2 2023-08-10 12:00:00 Temperatura 15.8 del 10-08-2023 11:00, Menor que la Mínima 16.3 10-08-2023 12:00 15.8 -- 16.3 2023-08-10 12:08:00
2 2023-08-11 12:00:00 Temperatura 13.5 del 11-08-2023 06:00, Menor que la Mínima 16.5 11-08-2023 12:00 13.5 -- 16.5 2023-08-11 12:08:00
2 2023-08-13 12:00:00 Temperatura 17.3 del 13-08-2023 09:00, Menor que la Mínima 17.4 13-08-2023 12:00 17.3 -- 17.4 2023-08-13 12:08:00
2 2023-08-15 12:00:00 Temperatura 16.4 del 15-08-2023 04:00, Menor que la Mínima 16.8 15-08-2023 12:00 16.4 -- 16.8 2023-08-15 12:08:00
2 2023-08-17 12:00:00 Temperatura 14.1 del 17-08-2023 03:00, Menor que la Mínima 15.3 17-08-2023 12:00 14.1 -- 15.3 2023-08-17 12:08:00
2 2023-08-18 12:00:00 Temperatura 14.0 del 18-08-2023 04:00, Menor que la Mínima 15.3 18-08-2023 12:00 14.0 -- 15.3 2023-08-18 12:08:00
2 2023-08-20 12:00:00 Temperatura 16.4 del 20-08-2023 11:00, Menor que la Mínima 16.5 20-08-2023 12:00 16.4 -- 16.5 2023-08-20 12:08:00
2 2023-08-22 12:00:00 Temperatura 13.3 del 22-08-2023 07:00, Menor que la Mínima 16.0 22-08-2023 12:00 13.3 -- 16.0 2023-08-22 12:08:00
2 2023-08-23 12:00:00 Temperatura 14.3 del 23-08-2023 04:00, Menor que la Mínima 16.4 23-08-2023 12:00 14.3 -- 16.4 2023-08-23 12:08:00
2 2023-08-24 12:00:00 Temperatura 12.7 del 24-08-2023 06:00, Menor que la Mínima 16.3 24-08-2023 12:00 12.7 -- 16.3 2023-08-24 12:08:00
2 2023-08-26 12:00:00 Temperatura 11.3 del 26-08-2023 08:00, Menor que la Mínima 14.7 26-08-2023 12:00 11.3 -- 14.7 2023-08-26 12:08:00
2 2023-08-27 12:00:00 Temperatura 14.2 del 27-08-2023 03:00, Menor que la Mínima 16.7 27-08-2023 12:00 14.2 -- 16.7 2023-08-27 12:08:00
2 2023-08-28 12:00:00 Temperatura 14.1 del 28-08-2023 04:00, Menor que la Mínima 16.5 28-08-2023 12:00 14.1 -- 16.5 2023-08-28 12:08:00
2 2023-08-29 12:00:00 Temperatura 12.5 del 29-08-2023 08:00, Menor que la Mínima 15.8 29-08-2023 12:00 12.5 -- 15.8 2023-08-29 12:08:00
2 2023-08-30 12:00:00 Temperatura 14.4 del 30-08-2023 03:00, Menor que la Mínima 16.5 30-08-2023 12:00 14.4 -- 16.5 2023-08-30 12:35:00
2 2023-08-31 12:00:00 Temperatura 13.7 del 31-08-2023 04:00, Menor que la Mínima 15.8 31-08-2023 12:00 13.7 -- 15.8 2023-08-31 12:20:00
2 2023-09-02 12:00:00 Temperatura 17.0 del 02-09-2023 07:00, Menor que la Mínima 17.2 02-09-2023 12:00 17.0 -- 17.2 2023-09-02 12:08:00
2 2023-09-03 12:00:00 Temperatura 11.5 del 03-09-2023 10:00, Menor que la Mínima 11.9 03-09-2023 12:00 11.5 -- 11.9 2023-09-03 12:08:00
2 2023-09-04 12:00:00 Temperatura 12.0 del 04-09-2023 09:00, Menor que la Mínima 14.6 04-09-2023 12:00 12.0 -- 14.6 2023-09-04 12:35:00
2 2023-09-05 12:00:00 Temperatura 11.9 del 05-09-2023 08:00, Menor que la Mínima 16.5 05-09-2023 12:00 11.9 -- 16.5 2023-09-05 15:35:00
2 2023-09-07 12:00:00 Temperatura 13.7 del 07-09-2023 06:00, Menor que la Mínima 16.3 07-09-2023 12:00 13.7 -- 16.3 2023-09-07 12:08:00
2 2023-09-08 12:00:00 Temperatura 14.7 del 08-09-2023 04:00, Menor que la Mínima 16.9 08-09-2023 12:00 14.7 -- 16.9 2023-09-08 12:08:00
2 2023-09-12 12:00:00 Temperatura 15.4 del 12-09-2023 06:00, Menor que la Mínima 16.4 12-09-2023 12:00 15.4 -- 16.4 2023-09-12 12:08:00
2 2023-09-14 12:00:00 Temperatura 12.5 del 14-09-2023 07:00, Menor que la Mínima 14.5 14-09-2023 12:00 12.5 -- 14.5 2023-09-14 12:08:00
2 2023-09-16 12:00:00 Temperatura 17.1 del 16-09-2023 02:00, Menor que la Mínima 17.2 16-09-2023 12:00 17.1 -- 17.2 2023-09-16 12:08:00
2 2023-09-18 12:00:00 Temperatura 16.0 del 18-09-2023 04:00, Menor que la Mínima 17.2 18-09-2023 12:00 16.0 -- 17.2 2023-09-18 12:08:00
2 2023-09-19 12:00:00 Temperatura 14.6 del 19-09-2023 05:00, Menor que la Mínima 16.2 19-09-2023 12:00 14.6 -- 16.2 2023-09-19 12:08:00
2 2023-09-20 12:00:00 Temperatura 16.5 del 20-09-2023 02:00, Menor que la Mínima 16.6 20-09-2023 12:00 16.5 -- 16.6 2023-09-21 10:50:00
2 2023-09-22 12:00:00 Temperatura 14.9 del 22-09-2023 03:00, Menor que la Mínima 16.4 22-09-2023 12:00 14.9 -- 16.4 2023-09-22 12:08:00
2 2023-09-26 12:00:00 Temperatura 15.1 del 26-09-2023 03:00, Menor que la Mínima 15.7 26-09-2023 12:00 15.1 -- 15.7 2023-09-26 12:08:00
2 2023-09-29 12:00:00 Temperatura 11.6 del 29-09-2023 07:00, Menor que la Mínima 15.0 29-09-2023 12:00 11.6 -- 15.0 2023-09-29 12:08:00
2 2023-08-11 00:00:00 Temperatura 21.7 del 10-08-2023 18:00, Mayor que la Máxima 17.5 11-08-2023 00:00 21.7 -- 17.5 2023-08-11 00:08:00
2 2023-08-12 00:00:00 Temperatura 19.7 del 11-08-2023 19:00, Mayor que la Máxima 18.8 12-08-2023 00:00 19.7 -- 18.8 2023-08-12 00:08:00
2 2023-08-13 00:00:00 Temperatura 20.3 del 12-08-2023 20:00, Mayor que la Máxima 19.2 13-08-2023 00:00 20.3 -- 19.2 2023-08-13 00:08:00
2 2023-08-14 00:00:00 Temperatura 20.5 del 13-08-2023 20:00, Mayor que la Máxima 18.8 14-08-2023 00:00 20.5 -- 18.8 2023-08-14 00:08:00
2 2023-08-15 00:00:00 Temperatura 20.6 del 14-08-2023 20:00, Mayor que la Máxima 19.0 15-08-2023 00:00 20.6 -- 19.0 2023-08-15 00:08:00
2 2023-08-16 00:00:00 Temperatura 21.6 del 15-08-2023 19:00, Mayor que la Máxima 19.0 16-08-2023 00:00 21.6 -- 19.0 2023-08-16 00:08:00
2 2023-08-19 00:00:00 Temperatura 19.9 del 18-08-2023 19:00, Mayor que la Máxima 17.1 19-08-2023 00:00 19.9 -- 17.1 2023-08-19 00:08:00
2 2023-08-20 00:00:00 Temperatura 19.5 del 19-08-2023 20:00, Mayor que la Máxima 18.4 20-08-2023 00:00 19.5 -- 18.4 2023-08-20 00:08:00
2 2023-08-21 00:00:00 Temperatura 20.4 del 20-08-2023 19:00, Mayor que la Máxima 18.6 21-08-2023 00:00 20.4 -- 18.6 2023-08-21 00:08:00
2 2023-08-22 00:00:00 Temperatura 20.7 del 21-08-2023 20:00, Mayor que la Máxima 18.9 22-08-2023 00:00 20.7 -- 18.9 2023-08-22 00:08:00
2 2023-08-23 00:00:00 Temperatura 21.3 del 22-08-2023 21:00, Mayor que la Máxima 17.3 23-08-2023 00:00 21.3 -- 17.3 2023-08-23 00:08:00
2 2023-08-24 00:00:00 Temperatura 21.4 del 23-08-2023 20:00, Mayor que la Máxima 17.6 24-08-2023 00:00 21.4 -- 17.6 2023-08-24 00:08:00
2 2023-08-25 00:00:00 Temperatura 20.9 del 24-08-2023 18:00, Mayor que la Máxima 17.8 25-08-2023 00:00 20.9 -- 17.8 2023-08-25 00:08:00
2 2023-08-26 00:00:00 Temperatura 22.2 del 25-08-2023 18:00, Mayor que la Máxima 16.4 26-08-2023 00:00 22.2 -- 16.4 2023-08-26 00:08:00
2 2023-08-27 00:00:00 Temperatura 19.2 del 26-08-2023 20:00, Mayor que la Máxima 15.3 27-08-2023 00:00 19.2 -- 15.3 2023-08-27 00:08:00
2 2023-08-28 00:00:00 Temperatura 20.3 del 27-08-2023 18:00, Mayor que la Máxima 17.0 28-08-2023 00:00 20.3 -- 17.0 2023-08-28 00:20:00
2 2023-08-29 00:00:00 Temperatura 20.6 del 28-08-2023 18:00, Mayor que la Máxima 17.6 29-08-2023 00:00 20.6 -- 17.6 2023-08-29 00:08:00
2 2023-08-30 00:00:00 Temperatura 21.0 del 29-08-2023 21:00, Mayor que la Máxima 17.5 30-08-2023 00:00 21.0 -- 17.5 2023-08-30 00:08:00
2 2023-09-01 00:00:00 Temperatura 19.5 del 31-08-2023 19:00, Mayor que la Máxima 17.6 01-09-2023 00:00 19.5 -- 17.6 2023-09-01 00:08:00
2 2023-09-02 00:00:00 Temperatura 20.6 del 01-09-2023 19:00, Mayor que la Máxima 18.2 02-09-2023 00:00 20.6 -- 18.2 2023-09-02 00:08:00
2 2023-09-03 00:00:00 Temperatura 20.3 del 02-09-2023 19:00, Mayor que la Máxima 18.8 03-09-2023 00:00 20.3 -- 18.8 2023-09-03 00:08:00
2 2023-09-04 00:00:00 Temperatura 20.7 del 03-09-2023 19:00, Mayor que la Máxima 17.2 04-09-2023 00:00 20.7 -- 17.2 2023-09-04 00:08:00
2 2023-09-05 00:00:00 Temperatura 22.0 del 04-09-2023 18:00, Mayor que la Máxima 16.8 05-09-2023 00:00 22.0 -- 16.8 2023-09-05 00:35:00
Errores del Nivel 62
Informe generado el 05-03-2024 11:39
Requerimiento: RE6001